Terminal Aerodrome Forecast
Issued by NWS Wilmington, OH

Home | Current Version | Previous Version | Text Only | Print | Product List | Glossary On
Versions: 1 2 3 4 5 6 7 8 9 10 11 12 13 14 15
000
FTUS41 KILN 242336
TAFILN
TAF
KILN 242336Z 2500/2524 04005KT 1SM BR BKN005 OVC010
     FM250400 33005KT 1SM BR OVC004
     FM251400 34008KT 2SM BR BKN006 OVC010
     FM251600 34010KT P6SM OVC015
     FM252000 33010KT P6SM BKN035=

USA.gov is the U.S. government's official web portal to all federal, state and local government web resources and services.